Погода Тешнярьна 2 недели

Пензенская область, Россия

27 мая-09 июня
  • 27мая
    Сегодня
    +3°
    +20°
    Ясно и безоблачно
    ВремяПогодаТемператураВлажностьДавлениеВетер, м/сВероятность осадков
    00:00Ясно и безоблачно+9°C62 %750 мм3.9 м/с2 %
    03:00Ясно и безоблачно+5°C67 %751 мм2.2 м/с2 %
    06:00Ясно и безоблачно+8°C67 %753 мм2.1 м/с2 %
    09:00Ясно и безоблачно+15°C44 %754 мм2.7 м/с2 %
    12:00Ясно и безоблачно+17°C41 %754 мм2.8 м/с2 %
    15:00Ясно и безоблачно+19°C39 %753 мм2.5 м/с2 %
    18:00Ясно и безоблачно+18°C42 %753 мм1.9 м/с2 %
    21:00Ясно и безоблачно+11°C60 %753 мм2.2 м/с2 %
  • 28мая
    Вторник
    +6°
    +22°
    Ясно и безоблачно
    ВремяПогодаТемператураВлажностьДавлениеВетер, м/сВероятность осадков
    00:00Ясно и безоблачно+6°C59 %753 мм2.3 м/с2 %
    03:00Ясно и безоблачно+3°C71 %753 мм2.1 м/с2 %
    06:00Ясно и безоблачно+8°C65 %754 мм1.2 м/с2 %
    09:00Ясно и безоблачно+17°C45 %753 мм1.0 м/с2 %
    12:00Ясно и безоблачно+20°C41 %753 мм0.9 м/с2 %
    15:00Ясно и безоблачно+21°C39 %752 мм1.6 м/с2 %
    18:00Ясно и безоблачно+21°C46 %750 мм1.4 м/с2 %
    21:00Ясно и безоблачно+14°C54 %749 мм1.9 м/с2 %
  • 29мая
    Среда
    +7°
    +25°
    Ясно и безоблачно
    ВремяПогодаТемператураВлажностьДавлениеВетер, м/сВероятность осадков
    00:00Ясно и безоблачно+8°C73 %749 мм2.1 м/с2 %
    03:00Ясно и безоблачно+6°C77 %748 мм2.0 м/с2 %
    06:00Ясно и безоблачно+11°C66 %748 мм1.6 м/с2 %
    09:00Ясно и безоблачно+20°C44 %748 мм1.4 м/с2 %
    12:00Ясно и безоблачно+23°C37 %748 мм1.9 м/с2 %
    15:00Ясно и безоблачно+24°C36 %747 мм1.8 м/с2 %
    18:00Ясно и безоблачно+23°C49 %746 мм1.1 м/с2 %
    21:00Ясно и безоблачно+16°C61 %745 мм1.7 м/с2 %
  • 30мая
    Четверг
    +9°
    +27°
    Ясно и безоблачно
    ВремяПогодаТемператураВлажностьДавлениеВетер, м/сВероятность осадков
    00:00Ясно и безоблачно+10°C77 %745 мм2.5 м/с2 %
    03:00Ясно и безоблачно+7°C81 %745 мм2.7 м/с2 %
    06:00Практически безоблачно+13°C69 %745 мм0.4 м/с2 %
    09:00Облачно с прояснениями+22°C43 %745 мм0.3 м/с2 %
    12:00Облачно с прояснениями+26°C34 %745 мм0.7 м/с2 %
    15:00Ясно и безоблачно+27°C34 %745 мм0.5 м/с2 %
    18:00Ясно и безоблачно+25°C46 %744 мм0.9 м/с2 %
    21:00Ясно и безоблачно+19°C46 %744 мм1.4 м/с2 %
  • 31мая
    Пятница
    +10°
    +29°
    Ясно и безоблачно
    ВремяПогодаТемператураВлажностьДавлениеВетер, м/сВероятность осадков
    00:00Ясно и безоблачно+13°C60 %744 мм1.2 м/с4 %
    03:00Ясно и безоблачно+9°C73 %744 мм1.6 м/с4 %
    06:00Ясно и безоблачно+15°C64 %744 мм1.3 м/с2 %
    09:00Ясно и безоблачно+24°C35 %745 мм1.0 м/с2 %
    12:00Ясно и безоблачно+28°C29 %745 мм0.9 м/с11 %
    15:00Ясно и безоблачно+29°C29 %745 мм0.1 м/с17 %
    18:00Ясно и безоблачно+27°C42 %744 мм1.1 м/с14 %
    21:00Ясно и безоблачно+19°C57 %745 мм1.8 м/с4 %
Мы используем cookies
Соглашаюсь